Fahri Eksioglu — TCUH — position and weather

sailwx.info

Track history (hours):
 
Tides and Currents Weather Stations Pressure Air Temp Water Temp Dewpoint Dewpoint Depression Visibility Wind Speed Wind Dir Waves Ship Positions

Fahri Eksioglu

Last reported at 2014-Nov-25 16:28 UTC. Time now 2014-Dec-19 18:13 UTC.
Position N 41°26' E 029°42'.
Warning: this ship's position is 24 days out of date.

Length 89 m; draft 5.7 m.

Type: Cargo ship. MMSI: 271000450.

Date/timePositionNaut miles runAvg speedWind from/ knotsBaromVisibWave heightAir tempDewpointWater temp
2014-Nov-25 16:28N 41°26' E 029°42'4 3.8
2014-Nov-25 15:33N 41°23' E 029°40'4 4.2
2014-Nov-25 14:33N 41°19' E 029°39'4 4.1
2014-Nov-25 13:33N 41°15' E 029°37'3 3.4
2014-Nov-25 12:33N 41°12' E 029°35'0 0.4
2014-Nov-25 11:33N 41°12' E 029°35'0 0.3
2014-Nov-25 10:33N 41°12' E 029°35'0 0.0
2014-Nov-25 09:33N 41°12' E 029°35'0 0.1
2014-Nov-25 08:33N 41°12' E 029°35'0 0.0
2014-Nov-25 05:33N 41°12' E 029°35'0 0.0
2014-Nov-25 04:33N 41°12' E 029°35'0 0.0
2014-Nov-25 03:33N 41°12' E 029°35'0 0.0
2014-Nov-24 22:05N 41°12' E 029°35'0 0.0
2014-Nov-24 21:33N 41°12' E 029°35'0 0.0
2014-Nov-24 20:33N 41°12' E 029°35'0 0.0
2014-Nov-24 19:33N 41°12' E 029°35'0 0.0
2014-Nov-24 18:34N 41°12' E 029°35'0 0.0
2014-Nov-24 17:33N 41°12' E 029°35'0 0.0
2014-Nov-24 16:33N 41°12' E 029°35'0 0.0
2014-Nov-24 15:34N 41°12' E 029°35'0 0.1
2014-Nov-24 14:33N 41°12' E 029°35'3 2.6
2014-Nov-24 13:33N 41°12' E 029°31'4 4.0
2014-Nov-24 12:33N 41°14' E 029°27'5 4.7
2014-Nov-24 11:26N 41°16' E 029°20'23 5.3
2014-Nov-24 07:09N 40°59' E 028°60'4 5.6
2014-Nov-24 06:29N 40°57' E 028°56'2 0.3
2014-Nov-23 22:20N 40°58' E 028°55'0 0.0
2014-Nov-23 21:03N 40°58' E 028°55'0 0.0
2014-Nov-23 17:03N 40°58' E 028°55'0 0.0
2014-Nov-23 16:28N 40°58' E 028°55'0 0.0
2014-Nov-23 08:29N 40°58' E 028°55'6 6.7
2014-Nov-23 07:32N 40°53' E 029°00'8 8.4
2014-Nov-23 06:33N 40°47' E 029°08'7 6.7
2014-Nov-23 05:33N 40°46' E 029°17'10 8.4
2014-Nov-23 04:24N 40°45' E 029°29'3 0.1
2014-Nov-21 17:33N 40°44' E 029°25'8 8.1
2014-Nov-21 16:33N 40°45' E 029°15'9 8.5
2014-Nov-21 15:33N 40°49' E 029°05'10 7.8
2014-Nov-21 14:20N 40°56' E 028°57'26 2.6
2014-Nov-21 04:30N 41°19' E 029°13'9 7.1
2014-Nov-21 03:17N 41°19' E 029°24'403 7.8
2014-Nov-18 23:31N 44°25' E 037°33'8 8.6
2014-Nov-18 22:33N 44°32' E 037°40'8 8.5
2014-Nov-18 21:33N 44°37' E 037°49'6 6.3
2014-Nov-18 20:33N 44°44' E 037°47'0 0.2
2014-Nov-18 19:30N 44°44' E 037°47'0 0.0
2014-Nov-18 18:33N 44°44' E 037°47'0 0.0
2014-Nov-18 17:33N 44°44' E 037°47'0 0.0
2014-Nov-18 16:32N 44°44' E 037°47'0 0.0
2014-Nov-18 15:31N 44°44' E 037°47'0 0.0
2014-Nov-18 14:31N 44°44' E 037°47'0 0.0
2014-Nov-18 13:31N 44°44' E 037°47'0 0.0
2014-Nov-18 12:31N 44°44' E 037°47'0 0.0
2014-Nov-18 08:31N 44°44' E 037°47'0 0.0
2014-Nov-18 07:32N 44°44' E 037°47'0 0.0
2014-Nov-18 06:32N 44°44' E 037°47'0 0.0
2014-Nov-18 05:31N 44°44' E 037°47'0 0.0
2014-Nov-18 04:31N 44°44' E 037°47'0 0.0
2014-Nov-18 03:31N 44°44' E 037°47'0 0.0
2014-Nov-18 02:33N 44°44' E 037°47'0 0.0
2014-Nov-18 01:32N 44°44' E 037°47'0 0.0
2014-Nov-18 00:32N 44°44' E 037°47'0 0.0
2014-Nov-17 23:33N 44°44' E 037°47'0 0.0
2014-Nov-17 22:28N 44°44' E 037°47'0 0.0
2014-Nov-17 21:31N 44°44' E 037°47'0 0.0
2014-Nov-17 20:33N 44°44' E 037°47'0 0.0
2014-Nov-17 19:33N 44°44' E 037°47'0 0.0
2014-Nov-17 18:33N 44°44' E 037°47'0 0.0
2014-Nov-17 17:33N 44°44' E 037°47'0 0.0
2014-Nov-17 16:33N 44°44' E 037°47'0 0.0
2014-Nov-17 15:33N 44°44' E 037°47'0 0.0
2014-Nov-17 14:33N 44°44' E 037°47'0 0.0
2014-Nov-17 13:33N 44°44' E 037°47'6 6.3
2014-Nov-17 12:33N 44°38' E 037°51'5 4.8
2014-Nov-17 11:33N 44°34' E 037°50'5 5.3
2014-Nov-17 10:33N 44°29' E 037°46'4 4.0
2014-Nov-17 09:33N 44°26' E 037°43'1 1.4
2014-Nov-17 08:33N 44°25' E 037°44'1 0.5
2014-Nov-17 07:33N 44°24' E 037°45'0 0.2
2014-Nov-17 06:33N 44°25' E 037°45'0 0.3
2014-Nov-17 05:33N 44°25' E 037°45'0 0.2
2014-Nov-17 04:32N 44°25' E 037°46'0 0.4
2014-Nov-17 03:33N 44°25' E 037°46'3 2.9
2014-Nov-17 02:33N 44°25' E 037°42'9 6.7
2014-Nov-17 01:11N 44°19' E 037°33'5 7.4
2014-Nov-17 00:27N 44°15' E 037°28'  
Track history (hours):
 
Tides and Currents Weather Stations Pressure Air Temp Water Temp Dewpoint Dewpoint Depression Visibility Wind Speed Wind Dir Waves Ship Positions

Fahri Eksioglu

Last reported at 2014-Nov-25 16:28 UTC. Time now 2014-Dec-19 18:13 UTC.
Position N 41°26' E 029°42'.
Warning: this ship's position is 24 days out of date.

Length 89 m; draft 5.7 m.

Type: Cargo ship. MMSI: 271000450.

Date/timePositionNaut miles runAvg speedWind from/ knotsBaromVisibWave heightAir tempDewpointWater temp
2014-Nov-25 16:28N 41°26' E 029°42'4 3.8
2014-Nov-25 15:33N 41°23' E 029°40'4 4.2
2014-Nov-25 14:33N 41°19' E 029°39'4 4.1
2014-Nov-25 13:33N 41°15' E 029°37'3 3.4
2014-Nov-25 12:33N 41°12' E 029°35'0 0.4
2014-Nov-25 11:33N 41°12' E 029°35'0 0.3
2014-Nov-25 10:33N 41°12' E 029°35'0 0.0
2014-Nov-25 09:33N 41°12' E 029°35'0 0.1
2014-Nov-25 08:33N 41°12' E 029°35'0 0.0
2014-Nov-25 05:33N 41°12' E 029°35'0 0.0
2014-Nov-25 04:33N 41°12' E 029°35'0 0.0
2014-Nov-25 03:33N 41°12' E 029°35'0 0.0
2014-Nov-24 22:05N 41°12' E 029°35'0 0.0
2014-Nov-24 21:33N 41°12' E 029°35'0 0.0
2014-Nov-24 20:33N 41°12' E 029°35'0 0.0
2014-Nov-24 19:33N 41°12' E 029°35'0 0.0
2014-Nov-24 18:34N 41°12' E 029°35'0 0.0
2014-Nov-24 17:33N 41°12' E 029°35'0 0.0
2014-Nov-24 16:33N 41°12' E 029°35'0 0.0
2014-Nov-24 15:34N 41°12' E 029°35'0 0.1
2014-Nov-24 14:33N 41°12' E 029°35'3 2.6
2014-Nov-24 13:33N 41°12' E 029°31'4 4.0
2014-Nov-24 12:33N 41°14' E 029°27'5 4.7
2014-Nov-24 11:26N 41°16' E 029°20'23 5.3
2014-Nov-24 07:09N 40°59' E 028°60'4 5.6
2014-Nov-24 06:29N 40°57' E 028°56'2 0.3
2014-Nov-23 22:20N 40°58' E 028°55'0 0.0
2014-Nov-23 21:03N 40°58' E 028°55'0 0.0
2014-Nov-23 17:03N 40°58' E 028°55'0 0.0
2014-Nov-23 16:28N 40°58' E 028°55'0 0.0
2014-Nov-23 08:29N 40°58' E 028°55'6 6.7
2014-Nov-23 07:32N 40°53' E 029°00'8 8.4
2014-Nov-23 06:33N 40°47' E 029°08'7 6.7
2014-Nov-23 05:33N 40°46' E 029°17'10 8.4
2014-Nov-23 04:24N 40°45' E 029°29'3 0.1
2014-Nov-21 17:33N 40°44' E 029°25'8 8.1
2014-Nov-21 16:33N 40°45' E 029°15'9 8.5
2014-Nov-21 15:33N 40°49' E 029°05'10 7.8
2014-Nov-21 14:20N 40°56' E 028°57'26 2.6
2014-Nov-21 04:30N 41°19' E 029°13'9 7.1
2014-Nov-21 03:17N 41°19' E 029°24'403 7.8
2014-Nov-18 23:31N 44°25' E 037°33'8 8.6
2014-Nov-18 22:33N 44°32' E 037°40'8 8.5
2014-Nov-18 21:33N 44°37' E 037°49'6 6.3
2014-Nov-18 20:33N 44°44' E 037°47'0 0.2
2014-Nov-18 19:30N 44°44' E 037°47'0 0.0
2014-Nov-18 18:33N 44°44' E 037°47'0 0.0
2014-Nov-18 17:33N 44°44' E 037°47'0 0.0
2014-Nov-18 16:32N 44°44' E 037°47'0 0.0
2014-Nov-18 15:31N 44°44' E 037°47'0 0.0
2014-Nov-18 14:31N 44°44' E 037°47'0 0.0
2014-Nov-18 13:31N 44°44' E 037°47'0 0.0
2014-Nov-18 12:31N 44°44' E 037°47'0 0.0
2014-Nov-18 08:31N 44°44' E 037°47'0 0.0
2014-Nov-18 07:32N 44°44' E 037°47'0 0.0
2014-Nov-18 06:32N 44°44' E 037°47'0 0.0
2014-Nov-18 05:31N 44°44' E 037°47'0 0.0
2014-Nov-18 04:31N 44°44' E 037°47'0 0.0
2014-Nov-18 03:31N 44°44' E 037°47'0 0.0
2014-Nov-18 02:33N 44°44' E 037°47'0 0.0
2014-Nov-18 01:32N 44°44' E 037°47'0 0.0
2014-Nov-18 00:32N 44°44' E 037°47'0 0.0
2014-Nov-17 23:33N 44°44' E 037°47'0 0.0
2014-Nov-17 22:28N 44°44' E 037°47'0 0.0
2014-Nov-17 21:31N 44°44' E 037°47'0 0.0
2014-Nov-17 20:33N 44°44' E 037°47'0 0.0
2014-Nov-17 19:33N 44°44' E 037°47'0 0.0
2014-Nov-17 18:33N 44°44' E 037°47'0 0.0
2014-Nov-17 17:33N 44°44' E 037°47'0 0.0
2014-Nov-17 16:33N 44°44' E 037°47'0 0.0
2014-Nov-17 15:33N 44°44' E 037°47'0 0.0
2014-Nov-17 14:33N 44°44' E 037°47'0 0.0
2014-Nov-17 13:33N 44°44' E 037°47'6 6.3
2014-Nov-17 12:33N 44°38' E 037°51'5 4.8
2014-Nov-17 11:33N 44°34' E 037°50'5 5.3
2014-Nov-17 10:33N 44°29' E 037°46'4 4.0
2014-Nov-17 09:33N 44°26' E 037°43'1 1.4
2014-Nov-17 08:33N 44°25' E 037°44'1 0.5
2014-Nov-17 07:33N 44°24' E 037°45'0 0.2
2014-Nov-17 06:33N 44°25' E 037°45'0 0.3
2014-Nov-17 05:33N 44°25' E 037°45'0 0.2
2014-Nov-17 04:32N 44°25' E 037°46'0 0.4
2014-Nov-17 03:33N 44°25' E 037°46'3 2.9
2014-Nov-17 02:33N 44°25' E 037°42'9 6.7
2014-Nov-17 01:11N 44°19' E 037°33'5 7.4
2014-Nov-17 00:27N 44°15' E 037°28'  

Dump ship's entire track history